createdAt,value
2018-08-19T00:00:59.603Z,101756.63
2018-08-19T00:03:28.494Z,101754.40
2018-08-19T00:05:57.418Z,101761.48
2018-08-19T00:08:26.273Z,101761.10
2018-08-19T00:11:03.407Z,101759.37
2018-08-19T00:13:32.365Z,101751.64
2018-08-19T00:16:01.252Z,101751.34
2018-08-19T00:18:30.127Z,101747.90
2018-08-19T00:20:59.090Z,101736.03
2018-08-19T00:23:50.021Z,101742.23
2018-08-19T00:26:18.893Z,101743.65
2018-08-19T00:28:47.749Z,101737.98
2018-08-19T00:31:16.638Z,101736.60
2018-08-19T00:33:45.505Z,101742.79
2018-08-19T00:36:32.602Z,101740.86
2018-08-19T00:39:01.514Z,101740.20
2018-08-19T00:41:30.401Z,101739.14
2018-08-19T00:43:59.276Z,101728.48
2018-08-19T00:46:32.770Z,101730.71
2018-08-19T00:49:02.145Z,101731.26
2018-08-19T00:51:30.994Z,101723.27
2018-08-19T00:53:59.834Z,101722.75
2018-08-19T00:56:28.714Z,101720.72
2018-08-19T00:58:57.549Z,101723.14
2018-08-19T01:01:36.153Z,101714.38
2018-08-19T01:04:09.083Z,101714.38
2018-08-19T01:06:53.660Z,101707.84
2018-08-19T01:09:27.035Z,101706.11
2018-08-19T01:11:55.955Z,101706.45
2018-08-19T01:14:24.875Z,101714.20
2018-08-19T01:16:53.712Z,101698.73
2018-08-19T01:19:22.576Z,101705.89
2018-08-19T01:21:52.739Z,101702.32
2018-08-19T01:24:21.656Z,101707.14
2018-08-19T01:26:50.492Z,101708.17
2018-08-19T01:29:44.203Z,101710.93
2018-08-19T01:32:13.588Z,101713.17
2018-08-19T01:34:45.408Z,101709.05
2018-08-19T01:37:15.032Z,101715.06
2018-08-19T01:39:43.903Z,101711.11
2018-08-19T01:42:12.765Z,101710.80
2018-08-19T01:44:43.126Z,101706.67
2018-08-19T01:47:11.985Z,101714.59
2018-08-19T01:49:40.865Z,101709.30
2018-08-19T01:52:09.735Z,101712.23
2018-08-19T01:54:38.598Z,101711.53
2018-08-19T01:57:07.465Z,101702.05
2018-08-19T01:59:36.356Z,101706.52
2018-08-19T02:02:06.433Z,101707.72
2018-08-19T02:04:56.737Z,101702.94
2018-08-19T02:07:26.125Z,101698.66
2018-08-19T02:10:02.584Z,101702.95
2018-08-19T02:12:38.365Z,101713.60
2018-08-19T02:15:08.327Z,101708.96
2018-08-19T02:18:17.872Z,101712.57
2018-08-19T02:20:46.826Z,101703.63
2018-08-19T02:23:15.615Z,101703.12
2018-08-19T02:25:48.192Z,101694.87
2018-08-19T02:28:20.438Z,101695.73
2018-08-19T02:31:01.745Z,101688.38
2018-08-19T02:33:34.843Z,101694.57
2018-08-19T02:36:05.444Z,101687.19
2018-08-19T02:38:34.723Z,101690.14
2018-08-19T02:41:03.603Z,101688.94
2018-08-19T02:43:32.456Z,101683.27
2018-08-19T02:46:01.386Z,101687.22
2018-08-19T02:48:49.891Z,101685.50
2018-08-19T02:51:19.894Z,101687.77
2018-08-19T02:53:52.334Z,101686.57
2018-08-19T02:56:21.345Z,101684.13
2018-08-19T02:58:50.217Z,101678.66
2018-08-19T03:01:19.079Z,101668.88
2018-08-19T03:03:47.946Z,101672.31
2018-08-19T03:06:16.822Z,101672.83
2018-08-19T03:08:50.641Z,101671.97
2018-08-19T03:11:21.158Z,101667.16
2018-08-19T03:13:50.008Z,101674.53
2018-08-19T03:16:18.899Z,101666.94
2018-08-19T03:18:49.872Z,101665.40
2018-08-19T03:21:19.500Z,101674.41
2018-08-19T03:23:49.577Z,101673.69
2018-08-19T03:26:18.513Z,101670.28
2018-08-19T03:28:47.448Z,101661.48
2018-08-19T03:31:16.295Z,101659.59
2018-08-19T03:33:45.188Z,101658.73
2018-08-19T03:36:14.021Z,101666.61
2018-08-19T03:38:42.888Z,101669.00
2018-08-19T03:41:11.727Z,101663.20
2018-08-19T03:43:46.234Z,101661.69
2018-08-19T03:46:21.264Z,101657.70
2018-08-19T03:48:50.589Z,101656.50
2018-08-19T03:51:19.452Z,101660.31
2018-08-19T03:53:48.282Z,101667.53
2018-08-19T03:56:26.093Z,101665.30
2018-08-19T03:58:57.807Z,101659.15
2018-08-19T04:01:43.306Z,101656.87
2018-08-19T04:04:14.228Z,101663.44
2018-08-19T04:06:43.388Z,101666.21
2018-08-19T04:09:12.247Z,101667.73
2018-08-19T04:11:41.105Z,101669.30
2018-08-19T04:14:29.622Z,101669.98
2018-08-19T04:17:01.957Z,101658.16
2018-08-19T04:19:31.121Z,101662.82
2018-08-19T04:22:01.759Z,101659.38
2018-08-19T04:24:31.265Z,101662.15
2018-08-19T04:27:05.328Z,101660.43
2018-08-19T04:29:34.451Z,101654.43
2018-08-19T04:32:04.113Z,101653.73
2018-08-19T04:34:32.983Z,101654.09
2018-08-19T04:37:02.132Z,101650.16
2018-08-19T04:39:31.023Z,101646.89
2018-08-19T04:41:59.927Z,101653.58
2018-08-19T04:44:29.268Z,101654.26
2018-08-19T04:46:58.156Z,101652.01
2018-08-19T04:49:27.049Z,101651.17
2018-08-19T04:51:55.955Z,101657.00
2018-08-19T04:54:24.840Z,101651.33
2018-08-19T04:56:53.713Z,101652.55
2018-08-19T04:59:22.587Z,101648.42
2018-08-19T05:01:51.532Z,101650.30
2018-08-19T05:04:20.404Z,101654.95
2018-08-19T05:06:49.260Z,101648.74
2018-08-19T05:09:18.144Z,101655.45
2018-08-19T05:11:47.040Z,101652.88
2018-08-19T05:14:15.846Z,101656.16
2018-08-19T05:16:44.763Z,101648.77
2018-08-19T05:19:13.636Z,101649.61
2018-08-19T05:21:42.487Z,101652.02
2018-08-19T05:24:11.364Z,101658.39
2018-08-19T05:26:40.234Z,101661.12
2018-08-19T05:29:10.642Z,101654.78
2018-08-19T05:31:58.595Z,101653.39
2018-08-19T05:34:30.696Z,101655.98
2018-08-19T05:36:59.730Z,101659.23
2018-08-19T05:39:28.828Z,101649.28
2018-08-19T05:42:13.886Z,101650.14
2018-08-19T05:44:43.375Z,101655.77
2018-08-19T05:47:17.797Z,101660.59
2018-08-19T05:49:47.620Z,101657.50
2018-08-19T05:52:23.512Z,101649.96
2018-08-19T05:54:59.666Z,101657.83
2018-08-19T05:57:30.190Z,101663.33
2018-08-19T05:59:59.876Z,101662.33
2018-08-19T06:02:44.766Z,101665.35
2018-08-19T06:05:13.609Z,101662.79
2018-08-19T06:07:42.727Z,101658.84
2018-08-19T06:10:11.384Z,101656.27
2018-08-19T06:12:40.266Z,101661.98
2018-08-19T06:15:09.160Z,101654.23
2018-08-19T06:17:38.051Z,101658.88
2018-08-19T06:20:06.954Z,101657.51
2018-08-19T06:22:41.876Z,101658.00
2018-08-19T06:25:11.720Z,101651.64
2018-08-19T06:27:42.863Z,101654.22
2018-08-19T06:30:12.078Z,101651.50
2018-08-19T06:32:40.920Z,101652.81
2018-08-19T06:35:09.821Z,101651.46
2018-08-19T06:37:38.696Z,101649.08
2018-08-19T06:40:11.681Z,101649.41
2018-08-19T06:42:40.568Z,101651.93
2018-08-19T06:45:10.370Z,101644.52
2018-08-19T06:47:39.257Z,101652.28
2018-08-19T06:50:28.304Z,101660.02
2018-08-19T06:52:57.247Z,101655.12
2018-08-19T06:55:26.241Z,101657.06
2018-08-19T06:58:01.206Z,101653.61
2018-08-19T07:00:33.044Z,101655.16
2018-08-19T07:03:03.388Z,101656.33
2018-08-19T07:05:33.017Z,101652.72
2018-08-19T07:08:02.101Z,101669.38
2018-08-19T07:10:40.825Z,101653.14
2018-08-19T07:13:14.433Z,101657.70
2018-08-19T07:15:44.324Z,101645.36
2018-08-19T07:18:14.578Z,101652.24
2018-08-19T07:20:44.155Z,101643.27
2018-08-19T07:23:13.381Z,101643.13
2018-08-19T07:25:43.383Z,101636.05
2018-08-19T07:28:13.620Z,101644.39
2018-08-19T07:30:42.890Z,101642.92
2018-08-19T07:33:12.425Z,101643.42
2018-08-19T07:35:41.371Z,101644.84
2018-08-19T07:38:10.414Z,101651.88
2018-08-19T07:40:39.351Z,101655.27
2018-08-19T07:43:08.261Z,101654.69
2018-08-19T07:45:37.110Z,101652.55
2018-08-19T07:48:06.108Z,101658.48
2018-08-19T07:50:34.948Z,101654.02
2018-08-19T07:53:03.805Z,101656.23
2018-08-19T07:55:32.663Z,101656.38
2018-08-19T07:58:01.544Z,101653.48
2018-08-19T08:00:39.726Z,101650.91
2018-08-19T08:03:08.838Z,101647.02
2018-08-19T08:05:49.676Z,101647.86
2018-08-19T08:08:18.562Z,101647.55
2018-08-19T08:10:47.436Z,101644.34
2018-08-19T08:13:16.311Z,101652.58
2018-08-19T08:15:55.819Z,101643.53
2018-08-19T08:18:24.747Z,101643.45
2018-08-19T08:21:12.953Z,101642.86
2018-08-19T08:23:42.063Z,101655.01
2018-08-19T08:26:10.889Z,101645.61
2018-08-19T08:28:39.790Z,101642.86
2018-08-19T08:31:09.528Z,101643.91
2018-08-19T08:33:39.889Z,101644.91
2018-08-19T08:36:09.868Z,101645.04
2018-08-19T08:38:38.806Z,101638.60
2018-08-19T08:41:07.683Z,101642.02
2018-08-19T08:43:36.528Z,101646.75
2018-08-19T08:46:05.391Z,101640.02
2018-08-19T08:48:37.082Z,101634.84
2018-08-19T08:51:05.943Z,101635.75
2018-08-19T08:53:45.141Z,101635.69
2018-08-19T08:56:14.535Z,101643.11
2018-08-19T08:58:43.397Z,101629.14
2018-08-19T09:01:12.267Z,101633.47
2018-08-19T09:03:41.119Z,101636.73
2018-08-19T09:06:28.030Z,101633.09
2018-08-19T09:08:57.190Z,101627.91
2018-08-19T09:11:26.061Z,101637.27
2018-08-19T09:13:55.076Z,101633.14
2018-08-19T09:16:23.910Z,101618.04
2018-08-19T09:18:52.935Z,101627.81
2018-08-19T09:21:21.832Z,101628.45
2018-08-19T09:23:50.724Z,101628.34
2018-08-19T09:26:19.519Z,101622.58
2018-08-19T09:28:48.435Z,101629.94
2018-08-19T09:31:17.302Z,101614.75
2018-08-19T09:33:46.186Z,101614.63
2018-08-19T09:36:15.106Z,101610.52
2018-08-19T09:38:43.922Z,101609.39
2018-08-19T09:41:12.888Z,101608.94
2018-08-19T09:43:41.682Z,101603.06
2018-08-19T09:46:10.545Z,101609.17
2018-08-19T09:48:39.375Z,101607.45
2018-08-19T09:51:17.310Z,101607.98
2018-08-19T09:53:46.136Z,101604.86
2018-08-19T09:56:15.021Z,101605.59
2018-08-19T09:59:03.271Z,101606.45
2018-08-19T10:01:45.710Z,101611.38
2018-08-19T10:04:21.243Z,101597.26
2018-08-19T10:07:13.651Z,101611.93
2018-08-19T10:09:42.784Z,101604.52
2018-08-19T10:12:12.730Z,101594.84
2018-08-19T10:14:41.574Z,101594.20
2018-08-19T10:17:10.469Z,101595.22
2018-08-19T10:19:39.317Z,101593.13
2018-08-19T10:22:08.164Z,101596.16
2018-08-19T10:24:37.019Z,101598.08
2018-08-19T10:27:09.130Z,101597.58
2018-08-19T10:29:37.995Z,101591.91
2018-08-19T10:32:06.912Z,101592.63
2018-08-19T10:34:36.791Z,101585.07
2018-08-19T10:37:06.324Z,101586.64
2018-08-19T10:39:35.175Z,101589.45
2018-08-19T10:42:23.812Z,101587.89
2018-08-19T10:44:53.143Z,101580.30
2018-08-19T10:47:22.132Z,101574.13
2018-08-19T10:50:07.511Z,101570.26
2018-08-19T10:52:43.204Z,101579.83
2018-08-19T10:55:12.867Z,101586.03
2018-08-19T10:57:41.749Z,101569.00
2018-08-19T11:00:14.736Z,101576.56
2018-08-19T11:02:43.629Z,101573.52
2018-08-19T11:05:12.507Z,101570.89
2018-08-19T11:07:41.606Z,101565.95
2018-08-19T11:10:35.979Z,101565.17
2018-08-19T11:13:04.914Z,101570.30
2018-08-19T11:15:44.971Z,101563.39
2018-08-19T11:18:43.064Z,101550.64
2018-08-19T11:21:29.376Z,101560.09
2018-08-19T11:23:59.190Z,101548.56
2018-08-19T11:26:28.065Z,101548.97
2018-08-19T11:29:00.136Z,101547.56
2018-08-19T11:31:36.513Z,101547.78
2018-08-19T11:34:06.617Z,101561.73
2018-08-19T11:36:45.334Z,101546.08
2018-08-19T11:39:17.738Z,101543.84
2018-08-19T11:41:46.672Z,101538.56
2018-08-19T11:44:18.359Z,101542.13
2018-08-19T11:46:47.201Z,101533.77
2018-08-19T11:49:17.603Z,101531.91
2018-08-19T11:51:56.893Z,101542.88
2018-08-19T11:54:26.526Z,101539.16
2018-08-19T11:57:10.206Z,101537.59
2018-08-19T11:59:46.006Z,101538.21
2018-08-19T12:02:16.588Z,101540.16
2018-08-19T12:04:45.982Z,101532.32
2018-08-19T12:07:14.952Z,101530.70
2018-08-19T12:09:46.646Z,101534.67
2018-08-19T12:12:15.428Z,101536.35
2018-08-19T12:14:44.289Z,101533.00
2018-08-19T12:17:13.430Z,101537.77
2018-08-19T12:19:43.561Z,101532.20
2018-08-19T12:22:12.410Z,101528.37
2018-08-19T12:24:48.525Z,101526.34
2018-08-19T12:27:18.834Z,101530.30
2018-08-19T12:29:47.841Z,101519.43
2018-08-19T12:32:25.139Z,101527.64
2018-08-19T12:34:58.126Z,101527.64
2018-08-19T12:37:28.091Z,101510.78
2018-08-19T12:39:57.573Z,101512.61
2018-08-19T12:42:26.996Z,101502.48
2018-08-19T12:45:06.095Z,101501.10
2018-08-19T12:47:35.511Z,101497.17
2018-08-19T12:50:09.240Z,101500.05
2018-08-19T12:52:38.173Z,101503.75
2018-08-19T12:55:08.795Z,101509.83
2018-08-19T12:57:38.619Z,101506.95
2018-08-19T13:00:22.174Z,101500.31
2018-08-19T13:02:52.056Z,101492.08
2018-08-19T13:05:21.362Z,101497.59
2018-08-19T13:07:50.371Z,101489.03
2018-08-19T13:10:19.465Z,101495.70
2018-08-19T13:12:54.991Z,101491.16
2018-08-19T13:15:25.070Z,101490.23
2018-08-19T13:17:53.953Z,101491.80
2018-08-19T13:20:22.795Z,101480.24
2018-08-19T13:23:04.933Z,101475.93
2018-08-19T13:25:34.123Z,101473.20
2018-08-19T13:28:02.968Z,101468.48
2018-08-19T13:30:31.869Z,101462.88
2018-08-19T13:33:00.721Z,101458.60
2018-08-19T13:35:29.586Z,101455.76
2018-08-19T13:37:58.439Z,101460.55
2018-08-19T13:40:27.313Z,101458.43
2018-08-19T13:42:56.171Z,101453.41
2018-08-19T13:45:26.550Z,101453.66
2018-08-19T13:47:55.335Z,101446.74
2018-08-19T13:50:24.176Z,101446.69
2018-08-19T13:52:53.056Z,101437.48
2018-08-19T13:55:21.929Z,101441.29
2018-08-19T13:57:50.938Z,101434.87
2018-08-19T14:00:23.895Z,101438.41
2018-08-19T14:02:52.804Z,101435.47
2018-08-19T14:05:21.652Z,101436.70
2018-08-19T14:07:50.518Z,101428.87
2018-08-19T14:10:19.390Z,101428.30
2018-08-19T14:12:48.247Z,101422.75
2018-08-19T14:15:17.127Z,101421.36
2018-08-19T14:17:45.975Z,101413.93
2018-08-19T14:20:14.838Z,101421.59
2018-08-19T14:22:43.670Z,101421.66
2018-08-19T14:25:12.834Z,101420.29
2018-08-19T14:27:41.703Z,101408.42
2018-08-19T14:30:11.676Z,101402.25
2018-08-19T14:32:42.038Z,101409.33
2018-08-19T14:35:10.921Z,101401.95
2018-08-19T14:37:39.812Z,101404.16
2018-08-19T14:40:19.133Z,101412.34
2018-08-19T14:42:47.926Z,101409.04
2018-08-19T14:45:16.847Z,101405.02
2018-08-19T14:47:45.692Z,101396.86
2018-08-19T14:50:18.813Z,101396.86
2018-08-19T14:52:47.685Z,101390.62
2018-08-19T14:55:16.520Z,101384.81
2018-08-19T14:57:45.380Z,101385.55
2018-08-19T15:00:15.690Z,101385.92
2018-08-19T15:02:44.592Z,101396.86
2018-08-19T15:05:20.769Z,101393.31
2018-08-19T15:07:49.885Z,101391.83
2018-08-19T15:10:23.768Z,101391.85
2018-08-19T15:12:53.093Z,101397.67
2018-08-19T15:15:21.934Z,101389.48
2018-08-19T15:17:59.785Z,101393.61
2018-08-19T15:20:36.025Z,101393.45
2018-08-19T15:23:18.621Z,101383.05
2018-08-19T15:25:47.440Z,101387.74
2018-08-19T15:28:17.034Z,101385.60
2018-08-19T15:30:45.887Z,101384.79
2018-08-19T15:33:15.570Z,101398.42
2018-08-19T15:35:44.473Z,101397.81
2018-08-19T15:38:13.312Z,101379.52
2018-08-19T15:40:47.556Z,101381.34
2018-08-19T15:43:16.360Z,101383.78
2018-08-19T15:45:45.618Z,101385.67
2018-08-19T15:48:14.477Z,101381.26
2018-08-19T15:50:43.338Z,101385.11
2018-08-19T15:53:12.187Z,101376.91
2018-08-19T15:55:41.034Z,101371.16
2018-08-19T15:58:09.904Z,101376.21
2018-08-19T16:00:40.531Z,101367.69
2018-08-19T16:03:10.495Z,101376.64
2018-08-19T16:05:39.367Z,101370.14
2018-08-19T16:08:08.257Z,101378.91
2018-08-19T16:10:37.163Z,101374.49
2018-08-19T16:13:08.204Z,101368.03
2018-08-19T16:15:37.078Z,101367.35
2018-08-19T16:18:05.970Z,101374.23
2018-08-19T16:20:34.830Z,101370.62
2018-08-19T16:23:03.680Z,101374.03
2018-08-19T16:25:32.547Z,101370.52
2018-08-19T16:28:01.413Z,101364.76
2018-08-19T16:30:30.267Z,101364.22
2018-08-19T16:32:59.131Z,101362.52
2018-08-19T16:35:27.996Z,101366.63
2018-08-19T16:37:56.882Z,101357.71
2018-08-19T16:40:25.772Z,101359.31
2018-08-19T16:42:54.636Z,101361.07
2018-08-19T16:45:23.508Z,101361.19
2018-08-19T16:47:52.374Z,101359.80
2018-08-19T16:50:21.375Z,101355.57
2018-08-19T16:52:50.151Z,101355.23
2018-08-19T16:55:19.030Z,101355.64
2018-08-19T16:57:47.923Z,101350.73
2018-08-19T17:00:16.801Z,101352.81
2018-08-19T17:02:45.747Z,101348.48
2018-08-19T17:05:31.857Z,101344.54
2018-08-19T17:08:00.703Z,101351.28
2018-08-19T17:10:30.152Z,101345.88
2018-08-19T17:12:59.290Z,101349.16
2018-08-19T17:15:28.462Z,101352.24
2018-08-19T17:17:57.310Z,101350.64
2018-08-19T17:20:26.172Z,101352.98
2018-08-19T17:22:55.057Z,101359.23
2018-08-19T17:25:23.939Z,101346.24
2018-08-19T17:27:52.811Z,101352.23
2018-08-19T17:30:21.676Z,101355.48
2018-08-19T17:32:59.317Z,101349.66
2018-08-19T17:35:28.132Z,101350.92
2018-08-19T17:37:56.998Z,101348.91
2018-08-19T17:40:25.890Z,101352.21
2018-08-19T17:42:54.943Z,101355.41
2018-08-19T17:45:23.840Z,101353.94
2018-08-19T17:47:52.911Z,101355.41
2018-08-19T17:50:25.343Z,101343.94
2018-08-19T17:52:55.743Z,101340.61
2018-08-19T17:55:25.264Z,101337.73
2018-08-19T17:57:54.833Z,101342.33
2018-08-19T18:00:23.947Z,101344.66
2018-08-19T18:02:53.126Z,101344.66
2018-08-19T18:05:22.148Z,101357.53
2018-08-19T18:07:52.473Z,101350.85
2018-08-19T18:10:21.310Z,101343.29
2018-08-19T18:12:50.537Z,101349.77
2018-08-19T18:15:19.421Z,101346.68
2018-08-19T18:18:07.612Z,101346.27
2018-08-19T18:20:40.805Z,101342.53
2018-08-19T18:23:29.031Z,101336.25
2018-08-19T18:25:57.917Z,101341.39
2018-08-19T18:28:28.147Z,101342.66
2018-08-19T18:31:22.664Z,101342.87
2018-08-19T18:33:57.775Z,101343.27
2018-08-19T18:36:27.778Z,101345.08
2018-08-19T18:38:57.109Z,101336.46
2018-08-19T18:41:31.408Z,101339.61
2018-08-19T18:44:04.283Z,101337.90
2018-08-19T18:46:33.578Z,101339.48
2018-08-19T18:49:27.474Z,101335.45
2018-08-19T18:51:59.071Z,101338.92
2018-08-19T18:54:31.200Z,101333.62
2018-08-19T18:57:01.616Z,101343.28
2018-08-19T18:59:30.550Z,101337.38
2018-08-19T19:02:01.026Z,101342.05
2018-08-19T19:04:29.900Z,101350.83
2018-08-19T19:06:58.748Z,101347.09
2018-08-19T19:09:48.984Z,101353.14
2018-08-19T19:12:20.772Z,101351.75
2018-08-19T19:14:49.658Z,101356.54
2018-08-19T19:17:19.523Z,101353.00
2018-08-19T19:19:51.436Z,101362.98
2018-08-19T19:22:20.326Z,101358.06
2018-08-19T19:24:52.091Z,101360.16
2018-08-19T19:27:20.977Z,101355.77
2018-08-19T19:30:04.982Z,101359.17
2018-08-19T19:32:33.842Z,101361.41
2018-08-19T19:35:20.868Z,101372.26
2018-08-19T19:37:49.763Z,101367.11
2018-08-19T19:40:20.948Z,101363.19
2018-08-19T19:42:50.127Z,101363.69
2018-08-19T19:45:18.983Z,101370.63
2018-08-19T19:47:47.946Z,101369.32
2018-08-19T19:50:16.811Z,101365.61
2018-08-19T19:53:04.784Z,101366.40
2018-08-19T19:55:33.753Z,101373.50
2018-08-19T19:58:02.613Z,101371.03
2018-08-19T20:00:54.040Z,101362.81
2018-08-19T20:03:23.757Z,101355.74
2018-08-19T20:05:52.673Z,101350.88
2018-08-19T20:08:26.290Z,101357.06
2018-08-19T20:10:55.153Z,101346.50
2018-08-19T20:13:24.020Z,101348.73
2018-08-19T20:15:52.876Z,101357.20
2018-08-19T20:18:21.709Z,101358.52
2018-08-19T20:20:50.576Z,101361.20
2018-08-19T20:23:26.148Z,101366.40
2018-08-19T20:25:55.677Z,101357.59
2018-08-19T20:28:24.501Z,101362.86
2018-08-19T20:30:53.746Z,101368.11
2018-08-19T20:33:27.589Z,101365.34
2018-08-19T20:35:56.576Z,101361.94
2018-08-19T20:38:26.055Z,101366.34
2018-08-19T20:40:55.787Z,101359.37
2018-08-19T20:43:25.266Z,101360.97
2018-08-19T20:45:54.149Z,101367.39
2018-08-19T20:48:23.367Z,101362.39
2018-08-19T20:50:52.231Z,101367.87
2018-08-19T20:53:21.123Z,101365.73
2018-08-19T20:55:50.010Z,101366.59
2018-08-19T20:58:19.313Z,101368.39
2018-08-19T21:00:48.196Z,101365.30
2018-08-19T21:03:17.063Z,101363.92
2018-08-19T21:05:45.942Z,101366.73
2018-08-19T21:08:18.478Z,101373.25
2018-08-19T21:10:48.188Z,101369.30
2018-08-19T21:13:18.187Z,101375.15
2018-08-19T21:15:51.501Z,101366.73
2018-08-19T21:18:20.340Z,101372.12
2018-08-19T21:20:49.236Z,101376.67
2018-08-19T21:23:18.122Z,101377.20
2018-08-19T21:26:00.194Z,101372.39
2018-08-19T21:28:29.012Z,101379.48
2018-08-19T21:30:57.921Z,101380.48
2018-08-19T21:33:26.838Z,101376.79
2018-08-19T21:35:56.581Z,101381.67
2018-08-19T21:38:25.497Z,101374.30
2018-08-19T21:40:56.031Z,101384.02
2018-08-19T21:43:30.137Z,101386.83
2018-08-19T21:45:59.607Z,101387.57
2018-08-19T21:48:28.456Z,101381.15
2018-08-19T21:50:57.333Z,101385.86
2018-08-19T21:53:26.210Z,101384.09
2018-08-19T21:55:55.043Z,101379.81
2018-08-19T21:58:23.960Z,101386.91
2018-08-19T22:01:03.690Z,101384.67
2018-08-19T22:03:51.029Z,101394.20
2018-08-19T22:06:19.883Z,101391.03
2018-08-19T22:08:48.749Z,101399.70
2018-08-19T22:11:17.651Z,101388.02
2018-08-19T22:13:46.522Z,101399.90
2018-08-19T22:16:15.412Z,101392.39
2018-08-19T22:18:44.290Z,101389.86
2018-08-19T22:21:20.249Z,101388.27
2018-08-19T22:23:50.345Z,101387.10
2018-08-19T22:26:20.146Z,101392.61
2018-08-19T22:29:15.298Z,101388.48
2018-08-19T22:31:44.117Z,101388.78
2018-08-19T22:34:12.975Z,101388.67
2018-08-19T22:36:41.862Z,101386.50
2018-08-19T22:39:10.914Z,101386.25
2018-08-19T22:41:39.759Z,101390.38
2018-08-19T22:44:08.625Z,101386.77
2018-08-19T22:46:37.455Z,101392.28
2018-08-19T22:49:06.304Z,101389.57
2018-08-19T22:51:35.156Z,101395.08
2018-08-19T22:54:04.005Z,101393.44
2018-08-19T22:56:32.851Z,101394.03
2018-08-19T22:59:01.703Z,101390.76
2018-08-19T23:01:49.208Z,101395.80
2018-08-19T23:04:18.089Z,101392.70
2018-08-19T23:06:46.948Z,101393.03
2018-08-19T23:09:15.804Z,101396.42
2018-08-19T23:11:48.246Z,101397.73
2018-08-19T23:14:53.475Z,101391.12
2018-08-19T23:17:22.355Z,101398.91
2018-08-19T23:19:51.948Z,101389.78
2018-08-19T23:22:20.828Z,101389.39
2018-08-19T23:24:49.668Z,101385.45
2018-08-19T23:27:18.557Z,101386.55
2018-08-19T23:29:47.461Z,101385.20
2018-08-19T23:32:16.329Z,101391.43
2018-08-19T23:34:45.216Z,101387.50
2018-08-19T23:37:14.123Z,101389.78
2018-08-19T23:39:42.984Z,101385.50
2018-08-19T23:42:11.844Z,101377.13
2018-08-19T23:44:40.693Z,101379.42
2018-08-19T23:47:09.573Z,101384.06
2018-08-19T23:49:38.420Z,101375.55
2018-08-19T23:52:07.304Z,101380.20
2018-08-19T23:54:36.158Z,101379.69
2018-08-19T23:57:05.052Z,101379.28
2018-08-19T23:59:37.172Z,101376.12
